sensor_id;sensor_type;location;lat;lon;timestamp;P1;durP1;ratioP1;P2;durP2;ratioP2
53285;SDS011;39171;45.550;12.074;2022-07-11T00:00:42;1.52;;;0.93;;
53285;SDS011;39171;45.550;12.074;2022-07-11T00:06:43;1.38;;;0.90;;
53285;SDS011;39171;45.550;12.074;2022-07-11T00:12:44;0.85;;;0.70;;
53285;SDS011;39171;45.550;12.074;2022-07-11T00:18:46;1.10;;;0.65;;
53285;SDS011;39171;45.550;12.074;2022-07-11T00:24:47;1.00;;;0.73;;
53285;SDS011;39171;45.550;12.074;2022-07-11T00:30:49;0.98;;;0.80;;
53285;SDS011;39171;45.550;12.074;2022-07-11T00:36:51;1.13;;;0.77;;
53285;SDS011;39171;45.550;12.074;2022-07-11T00:42:53;1.58;;;0.80;;
53285;SDS011;39171;45.550;12.074;2022-07-11T00:48:55;0.98;;;0.70;;
53285;SDS011;39171;45.550;12.074;2022-07-11T00:54:56;1.02;;;0.63;;
53285;SDS011;39171;45.550;12.074;2022-07-11T01:00:58;0.98;;;0.73;;
53285;SDS011;39171;45.550;12.074;2022-07-11T01:06:59;1.23;;;0.80;;
53285;SDS011;39171;45.550;12.074;2022-07-11T01:13:01;1.40;;;0.80;;
53285;SDS011;39171;45.550;12.074;2022-07-11T01:19:02;0.88;;;0.68;;
53285;SDS011;39171;45.550;12.074;2022-07-11T01:25:07;1.20;;;0.80;;
53285;SDS011;39171;45.550;12.074;2022-07-11T01:31:08;1.80;;;0.90;;
53285;SDS011;39171;45.550;12.074;2022-07-11T01:37:10;1.88;;;0.82;;
53285;SDS011;39171;45.550;12.074;2022-07-11T01:43:11;0.98;;;0.80;;
53285;SDS011;39171;45.550;12.074;2022-07-11T01:49:12;1.02;;;0.68;;
53285;SDS011;39171;45.550;12.074;2022-07-11T01:55:14;1.05;;;0.77;;
53285;SDS011;39171;45.550;12.074;2022-07-11T02:01:15;0.95;;;0.65;;
53285;SDS011;39171;45.550;12.074;2022-07-11T02:07:17;1.13;;;0.80;;
53285;SDS011;39171;45.550;12.074;2022-07-11T02:13:38;1.20;;;0.70;;
53285;SDS011;39171;45.550;12.074;2022-07-11T02:19:39;0.82;;;0.70;;
53285;SDS011;39171;45.550;12.074;2022-07-11T02:25:41;0.63;;;0.50;;
53285;SDS011;39171;45.550;12.074;2022-07-11T02:31:43;1.88;;;0.77;;
53285;SDS011;39171;45.550;12.074;2022-07-11T02:37:45;0.90;;;0.80;;
53285;SDS011;39171;45.550;12.074;2022-07-11T02:43:46;1.10;;;0.80;;
53285;SDS011;39171;45.550;12.074;2022-07-11T02:49:48;1.13;;;0.88;;
53285;SDS011;39171;45.550;12.074;2022-07-11T02:55:49;1.15;;;0.73;;
53285;SDS011;39171;45.550;12.074;2022-07-11T03:01:54;1.35;;;0.93;;
53285;SDS011;39171;45.550;12.074;2022-07-11T03:07:55;1.35;;;0.93;;
53285;SDS011;39171;45.550;12.074;2022-07-11T03:13:57;1.10;;;0.80;;
53285;SDS011;39171;45.550;12.074;2022-07-11T03:19:58;1.15;;;0.80;;
53285;SDS011;39171;45.550;12.074;2022-07-11T03:26:01;1.20;;;0.80;;
53285;SDS011;39171;45.550;12.074;2022-07-11T03:32:04;1.10;;;0.75;;
53285;SDS011;39171;45.550;12.074;2022-07-11T03:38:06;1.55;;;0.90;;
53285;SDS011;39171;45.550;12.074;2022-07-11T03:44:09;1.00;;;0.90;;
53285;SDS011;39171;45.550;12.074;2022-07-11T03:50:10;1.02;;;0.80;;
53285;SDS011;39171;45.550;12.074;2022-07-11T03:56:11;1.33;;;1.08;;
53285;SDS011;39171;45.550;12.074;2022-07-11T04:02:13;1.35;;;1.02;;
53285;SDS011;39171;45.550;12.074;2022-07-11T04:08:14;1.92;;;1.20;;
53285;SDS011;39171;45.550;12.074;2022-07-11T04:14:16;3.78;;;1.35;;
53285;SDS011;39171;45.550;12.074;2022-07-11T04:20:17;1.98;;;1.38;;
53285;SDS011;39171;45.550;12.074;2022-07-11T04:26:19;2.42;;;1.42;;
53285;SDS011;39171;45.550;12.074;2022-07-11T04:32:20;1.38;;;1.02;;
53285;SDS011;39171;45.550;12.074;2022-07-11T04:38:22;2.38;;;1.17;;
53285;SDS011;39171;45.550;12.074;2022-07-11T04:44:24;2.30;;;1.30;;
53285;SDS011;39171;45.550;12.074;2022-07-11T04:50:26;1.75;;;1.20;;
53285;SDS011;39171;45.550;12.074;2022-07-11T04:56:27;2.08;;;1.13;;
53285;SDS011;39171;45.550;12.074;2022-07-11T05:02:28;1.48;;;1.00;;
53285;SDS011;39171;45.550;12.074;2022-07-11T05:08:30;1.58;;;1.05;;
53285;SDS011;39171;45.550;12.074;2022-07-11T05:14:31;1.75;;;1.10;;
53285;SDS011;39171;45.550;12.074;2022-07-11T05:20:33;2.42;;;1.20;;
53285;SDS011;39171;45.550;12.074;2022-07-11T05:26:34;1.40;;;0.90;;
53285;SDS011;39171;45.550;12.074;2022-07-11T05:32:37;1.15;;;1.00;;
53285;SDS011;39171;45.550;12.074;2022-07-11T05:38:38;1.42;;;1.02;;
53285;SDS011;39171;45.550;12.074;2022-07-11T05:44:40;1.25;;;0.98;;
53285;SDS011;39171;45.550;12.074;2022-07-11T05:50:41;1.23;;;0.93;;
53285;SDS011;39171;45.550;12.074;2022-07-11T05:56:43;1.13;;;0.80;;
53285;SDS011;39171;45.550;12.074;2022-07-11T06:02:45;1.23;;;0.80;;
53285;SDS011;39171;45.550;12.074;2022-07-11T06:08:47;0.70;;;0.60;;
53285;SDS011;39171;45.550;12.074;2022-07-11T06:14:49;1.17;;;0.85;;
53285;SDS011;39171;45.550;12.074;2022-07-11T06:20:50;1.00;;;0.70;;
53285;SDS011;39171;45.550;12.074;2022-07-11T06:26:52;1.20;;;1.00;;
53285;SDS011;39171;45.550;12.074;2022-07-11T06:32:54;1.30;;;0.90;;
53285;SDS011;39171;45.550;12.074;2022-07-11T06:38:56;0.65;;;0.60;;
53285;SDS011;39171;45.550;12.074;2022-07-11T06:44:57;1.15;;;0.90;;
53285;SDS011;39171;45.550;12.074;2022-07-11T06:50:59;1.00;;;0.90;;
53285;SDS011;39171;45.550;12.074;2022-07-11T06:57:00;0.90;;;0.77;;
53285;SDS011;39171;45.550;12.074;2022-07-11T07:03:01;0.88;;;0.70;;
53285;SDS011;39171;45.550;12.074;2022-07-11T07:09:03;1.00;;;0.77;;
53285;SDS011;39171;45.550;12.074;2022-07-11T07:15:04;0.90;;;0.70;;
53285;SDS011;39171;45.550;12.074;2022-07-11T07:21:07;1.08;;;0.80;;
53285;SDS011;39171;45.550;12.074;2022-07-11T07:27:09;0.93;;;0.75;;
53285;SDS011;39171;45.550;12.074;2022-07-11T07:33:11;1.15;;;0.75;;
53285;SDS011;39171;45.550;12.074;2022-07-11T07:39:13;0.80;;;0.70;;
53285;SDS011;39171;45.550;12.074;2022-07-11T07:45:15;0.90;;;0.70;;
53285;SDS011;39171;45.550;12.074;2022-07-11T07:51:16;0.90;;;0.70;;
53285;SDS011;39171;45.550;12.074;2022-07-11T07:57:18;1.48;;;0.80;;
53285;SDS011;39171;45.550;12.074;2022-07-11T08:03:19;0.95;;;0.70;;
53285;SDS011;39171;45.550;12.074;2022-07-11T08:09:20;0.65;;;0.45;;
53285;SDS011;39171;45.550;12.074;2022-07-11T08:15:22;0.68;;;0.50;;
53285;SDS011;39171;45.550;12.074;2022-07-11T08:21:23;0.80;;;0.60;;
53285;SDS011;39171;45.550;12.074;2022-07-11T08:27:26;0.80;;;0.60;;
53285;SDS011;39171;45.550;12.074;2022-07-11T08:33:27;0.77;;;0.55;;
53285;SDS011;39171;45.550;12.074;2022-07-11T08:39:29;0.57;;;0.50;;
53285;SDS011;39171;45.550;12.074;2022-07-11T08:45:31;1.02;;;0.60;;
53285;SDS011;39171;45.550;12.074;2022-07-11T08:51:32;0.73;;;0.50;;
53285;SDS011;39171;45.550;12.074;2022-07-11T08:57:38;1.40;;;1.10;;
53285;SDS011;39171;45.550;12.074;2022-07-11T09:03:39;0.70;;;0.60;;
53285;SDS011;39171;45.550;12.074;2022-07-11T09:09:42;1.48;;;0.82;;
53285;SDS011;39171;45.550;12.074;2022-07-11T09:15:45;0.73;;;0.55;;
53285;SDS011;39171;45.550;12.074;2022-07-11T09:21:56;0.57;;;0.50;;
53285;SDS011;39171;45.550;12.074;2022-07-11T09:28:17;0.55;;;0.50;;
53285;SDS011;39171;45.550;12.074;2022-07-11T09:34:24;0.57;;;0.40;;
53285;SDS011;39171;45.550;12.074;2022-07-11T09:40:27;0.88;;;0.50;;
53285;SDS011;39171;45.550;12.074;2022-07-11T09:46:29;0.60;;;0.50;;
53285;SDS011;39171;45.550;12.074;2022-07-11T09:52:30;0.95;;;0.45;;
53285;SDS011;39171;45.550;12.074;2022-07-11T09:58:31;0.60;;;0.45;;
53285;SDS011;39171;45.550;12.074;2022-07-11T10:04:33;0.52;;;0.40;;
53285;SDS011;39171;45.550;12.074;2022-07-11T10:10:34;0.68;;;0.50;;
53285;SDS011;39171;45.550;12.074;2022-07-11T10:16:41;0.40;;;0.30;;
53285;SDS011;39171;45.550;12.074;2022-07-11T10:29:13;0.60;;;0.45;;
53285;SDS011;39171;45.550;12.074;2022-07-11T10:35:20;0.70;;;0.50;;
53285;SDS011;39171;45.550;12.074;2022-07-11T10:41:23;0.50;;;0.40;;
53285;SDS011;39171;45.550;12.074;2022-07-11T10:53:48;0.80;;;0.55;;
53285;SDS011;39171;45.550;12.074;2022-07-11T10:59:55;0.73;;;0.50;;
53285;SDS011;39171;45.550;12.074;2022-07-11T11:12:02;0.80;;;0.57;;
53285;SDS011;39171;45.550;12.074;2022-07-11T11:30:25;0.55;;;0.35;;
53285;SDS011;39171;45.550;12.074;2022-07-11T11:36:27;1.38;;;0.47;;
53285;SDS011;39171;45.550;12.074;2022-07-11T11:42:29;1.17;;;0.80;;
53285;SDS011;39171;45.550;12.074;2022-07-11T11:48:36;2.90;;;1.33;;
53285;SDS011;39171;45.550;12.074;2022-07-11T11:54:39;1.75;;;1.10;;
53285;SDS011;39171;45.550;12.074;2022-07-11T12:00:40;1.13;;;0.80;;
53285;SDS011;39171;45.550;12.074;2022-07-11T12:06:43;1.60;;;1.10;;
53285;SDS011;39171;45.550;12.074;2022-07-11T12:12:48;1.23;;;0.95;;
53285;SDS011;39171;45.550;12.074;2022-07-11T12:18:52;1.45;;;0.88;;
53285;SDS011;39171;45.550;12.074;2022-07-11T12:24:56;2.10;;;1.00;;
53285;SDS011;39171;45.550;12.074;2022-07-11T12:30:58;1.98;;;0.90;;
53285;SDS011;39171;45.550;12.074;2022-07-11T12:37:04;1.33;;;0.77;;
53285;SDS011;39171;45.550;12.074;2022-07-11T12:43:10;1.83;;;0.80;;
53285;SDS011;39171;45.550;12.074;2022-07-11T12:49:31;2.55;;;1.20;;
53285;SDS011;39171;45.550;12.074;2022-07-11T12:55:34;2.08;;;1.00;;
53285;SDS011;39171;45.550;12.074;2022-07-11T13:01:36;2.00;;;1.20;;
53285;SDS011;39171;45.550;12.074;2022-07-11T13:07:54;2.35;;;1.13;;
53285;SDS011;39171;45.550;12.074;2022-07-11T13:14:13;2.75;;;1.08;;
53285;SDS011;39171;45.550;12.074;2022-07-11T13:20:39;2.55;;;1.02;;
53285;SDS011;39171;45.550;12.074;2022-07-11T13:26:40;1.85;;;1.00;;
53285;SDS011;39171;45.550;12.074;2022-07-11T13:32:42;2.10;;;1.20;;
53285;SDS011;39171;45.550;12.074;2022-07-11T13:38:45;2.70;;;1.10;;
53285;SDS011;39171;45.550;12.074;2022-07-11T13:44:52;3.22;;;1.17;;
53285;SDS011;39171;45.550;12.074;2022-07-11T13:50:54;1.60;;;1.02;;
53285;SDS011;39171;45.550;12.074;2022-07-11T13:56:56;2.17;;;1.00;;
53285;SDS011;39171;45.550;12.074;2022-07-11T14:02:57;2.35;;;1.00;;
53285;SDS011;39171;45.550;12.074;2022-07-11T14:09:06;2.63;;;1.27;;
53285;SDS011;39171;45.550;12.074;2022-07-11T14:15:07;2.13;;;1.00;;
53285;SDS011;39171;45.550;12.074;2022-07-11T14:21:09;1.95;;;1.00;;
53285;SDS011;39171;45.550;12.074;2022-07-11T14:27:10;1.55;;;0.80;;
53285;SDS011;39171;45.550;12.074;2022-07-11T14:33:14;2.13;;;0.93;;
53285;SDS011;39171;45.550;12.074;2022-07-11T14:39:15;2.33;;;1.20;;
53285;SDS011;39171;45.550;12.074;2022-07-11T14:45:17;1.73;;;0.90;;
53285;SDS011;39171;45.550;12.074;2022-07-11T14:51:19;2.70;;;1.10;;
53285;SDS011;39171;45.550;12.074;2022-07-11T14:57:21;2.40;;;1.20;;
53285;SDS011;39171;45.550;12.074;2022-07-11T15:03:22;1.77;;;0.80;;
53285;SDS011;39171;45.550;12.074;2022-07-11T15:09:39;1.85;;;1.00;;
53285;SDS011;39171;45.550;12.074;2022-07-11T15:15:58;1.58;;;0.52;;
53285;SDS011;39171;45.550;12.074;2022-07-11T15:22:00;1.80;;;1.10;;
53285;SDS011;39171;45.550;12.074;2022-07-11T15:28:01;1.80;;;1.08;;
53285;SDS011;39171;45.550;12.074;2022-07-11T15:34:03;1.23;;;0.85;;
53285;SDS011;39171;45.550;12.074;2022-07-11T15:40:06;1.98;;;1.15;;
53285;SDS011;39171;45.550;12.074;2022-07-11T15:46:08;1.95;;;0.90;;
53285;SDS011;39171;45.550;12.074;2022-07-11T15:52:10;2.10;;;1.23;;
53285;SDS011;39171;45.550;12.074;2022-07-11T15:58:12;1.25;;;0.73;;
53285;SDS011;39171;45.550;12.074;2022-07-11T16:04:14;2.70;;;1.00;;
53285;SDS011;39171;45.550;12.074;2022-07-11T16:10:15;1.67;;;0.88;;
53285;SDS011;39171;45.550;12.074;2022-07-11T16:16:17;1.45;;;0.98;;
53285;SDS011;39171;45.550;12.074;2022-07-11T16:22:20;1.15;;;0.70;;
53285;SDS011;39171;45.550;12.074;2022-07-11T16:28:22;1.02;;;0.63;;
53285;SDS011;39171;45.550;12.074;2022-07-11T16:34:23;0.85;;;0.50;;
53285;SDS011;39171;45.550;12.074;2022-07-11T16:40:25;2.20;;;0.80;;
53285;SDS011;39171;45.550;12.074;2022-07-11T16:46:45;1.60;;;0.60;;
53285;SDS011;39171;45.550;12.074;2022-07-11T16:52:47;1.15;;;0.70;;
53285;SDS011;39171;45.550;12.074;2022-07-11T16:58:50;0.70;;;0.40;;
53285;SDS011;39171;45.550;12.074;2022-07-11T17:04:51;0.90;;;0.50;;
53285;SDS011;39171;45.550;12.074;2022-07-11T17:10:53;0.60;;;0.40;;
53285;SDS011;39171;45.550;12.074;2022-07-11T17:16:56;0.80;;;0.50;;
53285;SDS011;39171;45.550;12.074;2022-07-11T17:22:57;0.70;;;0.40;;
53285;SDS011;39171;45.550;12.074;2022-07-11T17:28:59;1.48;;;0.68;;
53285;SDS011;39171;45.550;12.074;2022-07-11T17:35:00;1.10;;;0.60;;
53285;SDS011;39171;45.550;12.074;2022-07-11T17:41:02;0.60;;;0.50;;
53285;SDS011;39171;45.550;12.074;2022-07-11T17:47:04;1.08;;;0.57;;
53285;SDS011;39171;45.550;12.074;2022-07-11T17:53:06;0.80;;;0.47;;
53285;SDS011;39171;45.550;12.074;2022-07-11T17:59:08;0.75;;;0.50;;
53285;SDS011;39171;45.550;12.074;2022-07-11T18:05:10;0.70;;;0.30;;
53285;SDS011;39171;45.550;12.074;2022-07-11T18:11:13;0.55;;;0.40;;
53285;SDS011;39171;45.550;12.074;2022-07-11T18:17:16;0.55;;;0.30;;
53285;SDS011;39171;45.550;12.074;2022-07-11T18:23:19;1.05;;;0.30;;
53285;SDS011;39171;45.550;12.074;2022-07-11T18:29:21;0.30;;;0.30;;
53285;SDS011;39171;45.550;12.074;2022-07-11T18:35:22;0.50;;;0.30;;
53285;SDS011;39171;45.550;12.074;2022-07-11T18:41:23;0.40;;;0.30;;
53285;SDS011;39171;45.550;12.074;2022-07-11T18:47:25;0.63;;;0.30;;
53285;SDS011;39171;45.550;12.074;2022-07-11T18:53:26;0.38;;;0.28;;
53285;SDS011;39171;45.550;12.074;2022-07-11T18:59:27;0.40;;;0.30;;
53285;SDS011;39171;45.550;12.074;2022-07-11T19:05:29;0.35;;;0.20;;
53285;SDS011;39171;45.550;12.074;2022-07-11T19:11:34;0.40;;;0.30;;
53285;SDS011;39171;45.550;12.074;2022-07-11T19:17:35;0.50;;;0.30;;
53285;SDS011;39171;45.550;12.074;2022-07-11T19:23:37;0.20;;;0.20;;
53285;SDS011;39171;45.550;12.074;2022-07-11T19:29:38;0.20;;;0.20;;
53285;SDS011;39171;45.550;12.074;2022-07-11T19:35:40;0.40;;;0.30;;
53285;SDS011;39171;45.550;12.074;2022-07-11T19:41:41;0.40;;;0.20;;
53285;SDS011;39171;45.550;12.074;2022-07-11T19:47:43;0.20;;;0.20;;
53285;SDS011;39171;45.550;12.074;2022-07-11T19:53:45;0.17;;;0.13;;
53285;SDS011;39171;45.550;12.074;2022-07-11T19:59:46;0.30;;;0.20;;
53285;SDS011;39171;45.550;12.074;2022-07-11T20:05:48;0.30;;;0.17;;
53285;SDS011;39171;45.550;12.074;2022-07-11T20:11:49;0.50;;;0.30;;
53285;SDS011;39171;45.550;12.074;2022-07-11T20:17:51;0.20;;;0.20;;
53285;SDS011;39171;45.550;12.074;2022-07-11T20:23:52;0.30;;;0.22;;
53285;SDS011;39171;45.550;12.074;2022-07-11T20:29:56;0.20;;;0.20;;
53285;SDS011;39171;45.550;12.074;2022-07-11T20:35:58;0.30;;;0.30;;
53285;SDS011;39171;45.550;12.074;2022-07-11T20:42:01;0.20;;;0.20;;
53285;SDS011;39171;45.550;12.074;2022-07-11T20:48:03;0.47;;;0.30;;
53285;SDS011;39171;45.550;12.074;2022-07-11T20:54:05;0.35;;;0.30;;
53285;SDS011;39171;45.550;12.074;2022-07-11T21:00:07;0.50;;;0.30;;
53285;SDS011;39171;45.550;12.074;2022-07-11T21:06:09;0.63;;;0.30;;
53285;SDS011;39171;45.550;12.074;2022-07-11T21:12:10;0.38;;;0.25;;
53285;SDS011;39171;45.550;12.074;2022-07-11T21:18:11;0.28;;;0.28;;
53285;SDS011;39171;45.550;12.074;2022-07-11T21:24:13;0.30;;;0.25;;
53285;SDS011;39171;45.550;12.074;2022-07-11T21:30:14;0.45;;;0.30;;
53285;SDS011;39171;45.550;12.074;2022-07-11T21:36:16;0.30;;;0.22;;
53285;SDS011;39171;45.550;12.074;2022-07-11T21:42:17;0.40;;;0.30;;
53285;SDS011;39171;45.550;12.074;2022-07-11T21:48:18;0.20;;;0.20;;
53285;SDS011;39171;45.550;12.074;2022-07-11T21:54:20;0.55;;;0.30;;
53285;SDS011;39171;45.550;12.074;2022-07-11T22:00:21;0.30;;;0.20;;
53285;SDS011;39171;45.550;12.074;2022-07-11T22:06:27;0.40;;;0.30;;
53285;SDS011;39171;45.550;12.074;2022-07-11T22:12:29;0.30;;;0.20;;
53285;SDS011;39171;45.550;12.074;2022-07-11T22:18:31;0.22;;;0.20;;
53285;SDS011;39171;45.550;12.074;2022-07-11T22:24:32;1.02;;;0.30;;
53285;SDS011;39171;45.550;12.074;2022-07-11T22:30:33;0.47;;;0.40;;
53285;SDS011;39171;45.550;12.074;2022-07-11T22:36:35;0.50;;;0.32;;
53285;SDS011;39171;45.550;12.074;2022-07-11T22:42:36;0.52;;;0.40;;
53285;SDS011;39171;45.550;12.074;2022-07-11T22:48:56;0.50;;;0.38;;
53285;SDS011;39171;45.550;12.074;2022-07-11T22:54:57;0.40;;;0.30;;
53285;SDS011;39171;45.550;12.074;2022-07-11T23:00:59;0.45;;;0.35;;
53285;SDS011;39171;45.550;12.074;2022-07-11T23:07:00;0.60;;;0.40;;
53285;SDS011;39171;45.550;12.074;2022-07-11T23:13:01;0.65;;;0.30;;
53285;SDS011;39171;45.550;12.074;2022-07-11T23:19:03;0.75;;;0.40;;
53285;SDS011;39171;45.550;12.074;2022-07-11T23:25:04;0.32;;;0.30;;
53285;SDS011;39171;45.550;12.074;2022-07-11T23:31:07;0.40;;;0.30;;
53285;SDS011;39171;45.550;12.074;2022-07-11T23:37:09;0.45;;;0.40;;
53285;SDS011;39171;45.550;12.074;2022-07-11T23:43:10;0.60;;;0.40;;
53285;SDS011;39171;45.550;12.074;2022-07-11T23:49:11;0.57;;;0.40;;
53285;SDS011;39171;45.550;12.074;2022-07-11T23:55:13;0.60;;;0.40;;
